sensor_id;sensor_type;location;lat;lon;timestamp;P1;durP1;ratioP1;P2;durP2;ratioP2
44048;SDS011;29717;47.028;15.470;2023-02-28T00:01:13;7.77;;;6.83;;
44048;SDS011;29717;47.028;15.470;2023-02-28T00:03:40;8.17;;;6.97;;
44048;SDS011;29717;47.028;15.470;2023-02-28T00:06:09;8.13;;;7.17;;
44048;SDS011;29717;47.028;15.470;2023-02-28T00:08:36;10.93;;;7.10;;
44048;SDS011;29717;47.028;15.470;2023-02-28T00:11:03;7.83;;;6.93;;
44048;SDS011;29717;47.028;15.470;2023-02-28T00:13:30;9.00;;;7.10;;
44048;SDS011;29717;47.028;15.470;2023-02-28T00:16:00;8.03;;;7.17;;
44048;SDS011;29717;47.028;15.470;2023-02-28T00:18:27;13.80;;;7.93;;
44048;SDS011;29717;47.028;15.470;2023-02-28T00:20:53;9.37;;;7.73;;
44048;SDS011;29717;47.028;15.470;2023-02-28T00:23:27;8.40;;;7.60;;
44048;SDS011;29717;47.028;15.470;2023-02-28T00:25:54;11.87;;;7.47;;
44048;SDS011;29717;47.028;15.470;2023-02-28T00:28:21;8.20;;;7.30;;
44048;SDS011;29717;47.028;15.470;2023-02-28T00:30:48;10.23;;;7.80;;
44048;SDS011;29717;47.028;15.470;2023-02-28T00:33:15;8.70;;;7.37;;
44048;SDS011;29717;47.028;15.470;2023-02-28T00:35:42;8.93;;;7.10;;
44048;SDS011;29717;47.028;15.470;2023-02-28T00:38:11;9.17;;;7.40;;
44048;SDS011;29717;47.028;15.470;2023-02-28T00:40:39;8.67;;;7.10;;
44048;SDS011;29717;47.028;15.470;2023-02-28T00:43:06;8.13;;;7.30;;
44048;SDS011;29717;47.028;15.470;2023-02-28T00:45:33;10.80;;;7.27;;
44048;SDS011;29717;47.028;15.470;2023-02-28T00:47:59;8.70;;;7.47;;
44048;SDS011;29717;47.028;15.470;2023-02-28T00:50:26;10.40;;;6.87;;
44048;SDS011;29717;47.028;15.470;2023-02-28T00:52:53;8.60;;;7.53;;
44048;SDS011;29717;47.028;15.470;2023-02-28T00:55:20;13.00;;;7.70;;
44048;SDS011;29717;47.028;15.470;2023-02-28T00:57:48;10.13;;;7.47;;
44048;SDS011;29717;47.028;15.470;2023-02-28T01:00:15;8.80;;;7.77;;
44048;SDS011;29717;47.028;15.470;2023-02-28T01:02:42;8.37;;;7.40;;
44048;SDS011;29717;47.028;15.470;2023-02-28T01:05:09;10.73;;;7.93;;
44048;SDS011;29717;47.028;15.470;2023-02-28T01:07:36;8.53;;;7.40;;
44048;SDS011;29717;47.028;15.470;2023-02-28T01:10:03;8.63;;;7.17;;
44048;SDS011;29717;47.028;15.470;2023-02-28T01:12:31;9.10;;;7.70;;
44048;SDS011;29717;47.028;15.470;2023-02-28T01:14:59;7.70;;;6.90;;
44048;SDS011;29717;47.028;15.470;2023-02-28T01:17:26;8.00;;;7.20;;
44048;SDS011;29717;47.028;15.470;2023-02-28T01:19:53;8.03;;;7.23;;
44048;SDS011;29717;47.028;15.470;2023-02-28T01:22:20;8.77;;;7.90;;
44048;SDS011;29717;47.028;15.470;2023-02-28T01:24:46;8.27;;;7.20;;
44048;SDS011;29717;47.028;15.470;2023-02-28T01:27:13;11.17;;;8.23;;
44048;SDS011;29717;47.028;15.470;2023-02-28T01:29:40;10.13;;;7.43;;
44048;SDS011;29717;47.028;15.470;2023-02-28T01:32:08;9.27;;;7.33;;
44048;SDS011;29717;47.028;15.470;2023-02-28T01:34:35;10.00;;;6.97;;
44048;SDS011;29717;47.028;15.470;2023-02-28T01:37:01;8.40;;;7.07;;
44048;SDS011;29717;47.028;15.470;2023-02-28T01:39:29;7.80;;;6.73;;
44048;SDS011;29717;47.028;15.470;2023-02-28T01:41:55;7.47;;;6.70;;
44048;SDS011;29717;47.028;15.470;2023-02-28T01:47:09;11.23;;;7.13;;
44048;SDS011;29717;47.028;15.470;2023-02-28T01:49:35;7.40;;;6.47;;
44048;SDS011;29717;47.028;15.470;2023-02-28T01:52:04;7.20;;;6.50;;
44048;SDS011;29717;47.028;15.470;2023-02-28T01:54:31;8.53;;;7.20;;
44048;SDS011;29717;47.028;15.470;2023-02-28T01:57:00;9.10;;;6.23;;
44048;SDS011;29717;47.028;15.470;2023-02-28T01:59:29;6.93;;;6.23;;
44048;SDS011;29717;47.028;15.470;2023-02-28T02:01:58;8.53;;;6.53;;
44048;SDS011;29717;47.028;15.470;2023-02-28T02:04:27;8.07;;;6.17;;
44048;SDS011;29717;47.028;15.470;2023-02-28T02:06:57;7.47;;;6.70;;
44048;SDS011;29717;47.028;15.470;2023-02-28T02:09:24;9.03;;;6.63;;
44048;SDS011;29717;47.028;15.470;2023-02-28T02:11:51;9.97;;;6.50;;
44048;SDS011;29717;47.028;15.470;2023-02-28T02:17:05;8.77;;;6.30;;
44048;SDS011;29717;47.028;15.470;2023-02-28T02:19:44;7.97;;;6.57;;
44048;SDS011;29717;47.028;15.470;2023-02-28T02:22:28;6.80;;;6.10;;
44048;SDS011;29717;47.028;15.470;2023-02-28T02:25:16;7.37;;;6.20;;
44048;SDS011;29717;47.028;15.470;2023-02-28T02:30:37;7.37;;;6.67;;
44048;SDS011;29717;47.028;15.470;2023-02-28T02:33:22;8.57;;;6.80;;
44048;SDS011;29717;47.028;15.470;2023-02-28T02:35:56;8.03;;;6.17;;
44048;SDS011;29717;47.028;15.470;2023-02-28T02:38:29;7.73;;;6.70;;
44048;SDS011;29717;47.028;15.470;2023-02-28T02:41:01;7.60;;;6.50;;
44048;SDS011;29717;47.028;15.470;2023-02-28T02:43:32;7.20;;;6.40;;
44048;SDS011;29717;47.028;15.470;2023-02-28T02:46:02;7.50;;;6.80;;
44048;SDS011;29717;47.028;15.470;2023-02-28T02:48:32;9.27;;;6.90;;
44048;SDS011;29717;47.028;15.470;2023-02-28T02:51:04;9.13;;;6.47;;
44048;SDS011;29717;47.028;15.470;2023-02-28T02:53:37;7.33;;;6.50;;
44048;SDS011;29717;47.028;15.470;2023-02-28T02:56:07;9.37;;;7.33;;
44048;SDS011;29717;47.028;15.470;2023-02-28T02:58:35;8.33;;;7.30;;
44048;SDS011;29717;47.028;15.470;2023-02-28T03:01:07;8.33;;;6.93;;
44048;SDS011;29717;47.028;15.470;2023-02-28T03:03:35;7.07;;;6.27;;
44048;SDS011;29717;47.028;15.470;2023-02-28T03:06:03;7.50;;;6.60;;
44048;SDS011;29717;47.028;15.470;2023-02-28T03:08:33;7.67;;;6.73;;
44048;SDS011;29717;47.028;15.470;2023-02-28T03:11:01;8.20;;;6.40;;
44048;SDS011;29717;47.028;15.470;2023-02-28T03:13:42;9.20;;;6.30;;
44048;SDS011;29717;47.028;15.470;2023-02-28T03:16:15;7.80;;;6.93;;
44048;SDS011;29717;47.028;15.470;2023-02-28T03:18:48;8.77;;;7.10;;
44048;SDS011;29717;47.028;15.470;2023-02-28T03:21:22;8.23;;;6.50;;
44048;SDS011;29717;47.028;15.470;2023-02-28T03:23:52;9.23;;;6.87;;
44048;SDS011;29717;47.028;15.470;2023-02-28T03:26:22;9.20;;;7.17;;
44048;SDS011;29717;47.028;15.470;2023-02-28T03:28:51;8.13;;;6.60;;
44048;SDS011;29717;47.028;15.470;2023-02-28T03:31:19;8.67;;;7.30;;
44048;SDS011;29717;47.028;15.470;2023-02-28T03:33:47;7.73;;;6.97;;
44048;SDS011;29717;47.028;15.470;2023-02-28T03:36:21;10.77;;;6.97;;
44048;SDS011;29717;47.028;15.470;2023-02-28T03:38:50;8.33;;;6.80;;
44048;SDS011;29717;47.028;15.470;2023-02-28T03:41:20;8.50;;;7.13;;
44048;SDS011;29717;47.028;15.470;2023-02-28T03:43:48;7.23;;;6.33;;
44048;SDS011;29717;47.028;15.470;2023-02-28T03:46:18;7.67;;;6.70;;
44048;SDS011;29717;47.028;15.470;2023-02-28T03:48:48;9.90;;;6.73;;
44048;SDS011;29717;47.028;15.470;2023-02-28T03:51:16;7.93;;;6.63;;
44048;SDS011;29717;47.028;15.470;2023-02-28T03:53:46;9.67;;;7.13;;
44048;SDS011;29717;47.028;15.470;2023-02-28T03:56:14;7.63;;;6.80;;
44048;SDS011;29717;47.028;15.470;2023-02-28T03:58:43;7.30;;;6.60;;
44048;SDS011;29717;47.028;15.470;2023-02-28T04:01:15;7.83;;;7.03;;
44048;SDS011;29717;47.028;15.470;2023-02-28T04:03:43;8.23;;;6.60;;
44048;SDS011;29717;47.028;15.470;2023-02-28T04:06:13;8.67;;;7.10;;
44048;SDS011;29717;47.028;15.470;2023-02-28T04:08:41;7.83;;;6.77;;
44048;SDS011;29717;47.028;15.470;2023-02-28T04:11:12;8.07;;;7.27;;
44048;SDS011;29717;47.028;15.470;2023-02-28T04:13:43;7.30;;;6.60;;
44048;SDS011;29717;47.028;15.470;2023-02-28T04:16:10;8.10;;;6.83;;
44048;SDS011;29717;47.028;15.470;2023-02-28T04:18:37;9.37;;;6.93;;
44048;SDS011;29717;47.028;15.470;2023-02-28T04:21:05;8.20;;;6.83;;
44048;SDS011;29717;47.028;15.470;2023-02-28T04:23:31;9.67;;;6.77;;
44048;SDS011;29717;47.028;15.470;2023-02-28T04:25:58;9.50;;;6.77;;
44048;SDS011;29717;47.028;15.470;2023-02-28T04:28:26;6.70;;;6.00;;
44048;SDS011;29717;47.028;15.470;2023-02-28T04:30:54;8.23;;;7.13;;
44048;SDS011;29717;47.028;15.470;2023-02-28T04:33:21;9.83;;;7.07;;
44048;SDS011;29717;47.028;15.470;2023-02-28T04:35:47;7.03;;;6.33;;
44048;SDS011;29717;47.028;15.470;2023-02-28T04:38:14;10.67;;;6.97;;
44048;SDS011;29717;47.028;15.470;2023-02-28T04:40:41;10.10;;;7.00;;
44048;SDS011;29717;47.028;15.470;2023-02-28T04:43:07;7.73;;;6.80;;
44048;SDS011;29717;47.028;15.470;2023-02-28T04:45:36;8.00;;;6.80;;
44048;SDS011;29717;47.028;15.470;2023-02-28T04:48:03;8.33;;;6.57;;
44048;SDS011;29717;47.028;15.470;2023-02-28T04:50:30;10.87;;;7.23;;
44048;SDS011;29717;47.028;15.470;2023-02-28T04:52:57;7.73;;;6.73;;
44048;SDS011;29717;47.028;15.470;2023-02-28T04:55:24;7.60;;;6.77;;
44048;SDS011;29717;47.028;15.470;2023-02-28T04:57:50;9.10;;;7.43;;
44048;SDS011;29717;47.028;15.470;2023-02-28T05:00:17;9.20;;;7.27;;
44048;SDS011;29717;47.028;15.470;2023-02-28T05:02:46;8.97;;;7.33;;
44048;SDS011;29717;47.028;15.470;2023-02-28T05:05:12;10.30;;;7.70;;
44048;SDS011;29717;47.028;15.470;2023-02-28T05:07:44;7.87;;;7.07;;
44048;SDS011;29717;47.028;15.470;2023-02-28T05:10:11;9.80;;;7.73;;
44048;SDS011;29717;47.028;15.470;2023-02-28T05:12:38;8.87;;;7.50;;
44048;SDS011;29717;47.028;15.470;2023-02-28T05:15:05;8.37;;;7.57;;
44048;SDS011;29717;47.028;15.470;2023-02-28T05:17:32;10.30;;;7.80;;
44048;SDS011;29717;47.028;15.470;2023-02-28T05:20:01;10.00;;;7.70;;
44048;SDS011;29717;47.028;15.470;2023-02-28T05:22:30;9.13;;;7.60;;
44048;SDS011;29717;47.028;15.470;2023-02-28T05:24:57;11.70;;;7.97;;
44048;SDS011;29717;47.028;15.470;2023-02-28T05:27:24;13.10;;;8.10;;
44048;SDS011;29717;47.028;15.470;2023-02-28T05:29:53;9.73;;;8.23;;
44048;SDS011;29717;47.028;15.470;2023-02-28T05:32:20;10.23;;;8.60;;
44048;SDS011;29717;47.028;15.470;2023-02-28T05:34:47;12.63;;;8.77;;
44048;SDS011;29717;47.028;15.470;2023-02-28T05:37:15;11.93;;;8.20;;
44048;SDS011;29717;47.028;15.470;2023-02-28T05:39:42;11.33;;;8.50;;
44048;SDS011;29717;47.028;15.470;2023-02-28T05:42:09;10.30;;;8.47;;
44048;SDS011;29717;47.028;15.470;2023-02-28T05:44:36;14.80;;;8.60;;
44048;SDS011;29717;47.028;15.470;2023-02-28T05:47:03;9.87;;;8.40;;
44048;SDS011;29717;47.028;15.470;2023-02-28T05:49:30;12.73;;;8.93;;
44048;SDS011;29717;47.028;15.470;2023-02-28T05:51:56;9.97;;;8.23;;
44048;SDS011;29717;47.028;15.470;2023-02-28T05:54:24;12.07;;;8.73;;
44048;SDS011;29717;47.028;15.470;2023-02-28T05:56:51;9.90;;;8.03;;
44048;SDS011;29717;47.028;15.470;2023-02-28T05:59:18;12.77;;;8.33;;
44048;SDS011;29717;47.028;15.470;2023-02-28T06:01:45;12.37;;;9.00;;
44048;SDS011;29717;47.028;15.470;2023-02-28T06:04:15;13.00;;;9.63;;
44048;SDS011;29717;47.028;15.470;2023-02-28T06:06:44;12.23;;;8.70;;
44048;SDS011;29717;47.028;15.470;2023-02-28T06:09:11;10.70;;;8.57;;
44048;SDS011;29717;47.028;15.470;2023-02-28T06:11:40;10.80;;;8.60;;
44048;SDS011;29717;47.028;15.470;2023-02-28T06:14:07;10.67;;;9.07;;
44048;SDS011;29717;47.028;15.470;2023-02-28T06:16:39;11.63;;;9.53;;
44048;SDS011;29717;47.028;15.470;2023-02-28T06:19:06;10.53;;;8.77;;
44048;SDS011;29717;47.028;15.470;2023-02-28T06:21:33;10.70;;;8.53;;
44048;SDS011;29717;47.028;15.470;2023-02-28T06:24:00;12.03;;;9.00;;
44048;SDS011;29717;47.028;15.470;2023-02-28T06:26:27;11.63;;;9.00;;
44048;SDS011;29717;47.028;15.470;2023-02-28T06:28:56;11.27;;;9.00;;
44048;SDS011;29717;47.028;15.470;2023-02-28T06:31:22;13.57;;;9.67;;
44048;SDS011;29717;47.028;15.470;2023-02-28T06:33:51;11.30;;;9.33;;
44048;SDS011;29717;47.028;15.470;2023-02-28T06:36:18;11.93;;;9.10;;
44048;SDS011;29717;47.028;15.470;2023-02-28T06:38:45;13.27;;;9.93;;
44048;SDS011;29717;47.028;15.470;2023-02-28T06:41:16;12.63;;;9.17;;
44048;SDS011;29717;47.028;15.470;2023-02-28T06:43:43;12.87;;;9.47;;
44048;SDS011;29717;47.028;15.470;2023-02-28T06:46:13;12.33;;;9.60;;
44048;SDS011;29717;47.028;15.470;2023-02-28T06:48:39;18.53;;;10.30;;
44048;SDS011;29717;47.028;15.470;2023-02-28T06:51:07;13.20;;;9.63;;
44048;SDS011;29717;47.028;15.470;2023-02-28T06:53:34;16.00;;;9.33;;
44048;SDS011;29717;47.028;15.470;2023-02-28T06:56:03;13.63;;;9.63;;
44048;SDS011;29717;47.028;15.470;2023-02-28T06:58:30;10.77;;;9.33;;
44048;SDS011;29717;47.028;15.470;2023-02-28T07:00:57;13.43;;;10.57;;
44048;SDS011;29717;47.028;15.470;2023-02-28T07:03:26;16.20;;;10.30;;
44048;SDS011;29717;47.028;15.470;2023-02-28T07:05:52;14.37;;;9.63;;
44048;SDS011;29717;47.028;15.470;2023-02-28T07:08:21;22.87;;;10.60;;
44048;SDS011;29717;47.028;15.470;2023-02-28T07:10:51;14.47;;;10.60;;
44048;SDS011;29717;47.028;15.470;2023-02-28T07:13:18;13.37;;;10.47;;
44048;SDS011;29717;47.028;15.470;2023-02-28T07:15:44;19.30;;;11.20;;
44048;SDS011;29717;47.028;15.470;2023-02-28T07:18:18;14.93;;;10.13;;
44048;SDS011;29717;47.028;15.470;2023-02-28T07:20:47;11.63;;;10.13;;
44048;SDS011;29717;47.028;15.470;2023-02-28T07:23:14;11.60;;;9.50;;
44048;SDS011;29717;47.028;15.470;2023-02-28T07:25:40;14.90;;;10.33;;
44048;SDS011;29717;47.028;15.470;2023-02-28T07:28:07;10.80;;;9.70;;
44048;SDS011;29717;47.028;15.470;2023-02-28T07:30:34;13.60;;;10.20;;
44048;SDS011;29717;47.028;15.470;2023-02-28T07:33:01;14.73;;;10.67;;
44048;SDS011;29717;47.028;15.470;2023-02-28T07:35:27;11.93;;;9.87;;
44048;SDS011;29717;47.028;15.470;2023-02-28T07:37:56;12.33;;;10.73;;
44048;SDS011;29717;47.028;15.470;2023-02-28T07:40:23;11.83;;;9.93;;
44048;SDS011;29717;47.028;15.470;2023-02-28T07:42:50;13.83;;;10.30;;
44048;SDS011;29717;47.028;15.470;2023-02-28T07:45:16;12.90;;;9.87;;
44048;SDS011;29717;47.028;15.470;2023-02-28T07:47:43;13.07;;;10.53;;
44048;SDS011;29717;47.028;15.470;2023-02-28T07:50:11;13.10;;;10.40;;
44048;SDS011;29717;47.028;15.470;2023-02-28T07:52:38;17.03;;;11.10;;
44048;SDS011;29717;47.028;15.470;2023-02-28T07:55:08;13.27;;;10.23;;
44048;SDS011;29717;47.028;15.470;2023-02-28T07:57:36;15.00;;;10.63;;
44048;SDS011;29717;47.028;15.470;2023-02-28T08:00:03;12.00;;;10.53;;
44048;SDS011;29717;47.028;15.470;2023-02-28T08:02:33;13.03;;;10.80;;
44048;SDS011;29717;47.028;15.470;2023-02-28T08:05:00;14.00;;;10.60;;
44048;SDS011;29717;47.028;15.470;2023-02-28T08:07:27;12.83;;;10.37;;
44048;SDS011;29717;47.028;15.470;2023-02-28T08:09:54;12.57;;;9.67;;
44048;SDS011;29717;47.028;15.470;2023-02-28T08:12:22;12.27;;;10.27;;
44048;SDS011;29717;47.028;15.470;2023-02-28T08:14:49;12.43;;;10.53;;
44048;SDS011;29717;47.028;15.470;2023-02-28T08:17:16;14.53;;;10.53;;
44048;SDS011;29717;47.028;15.470;2023-02-28T08:19:45;13.93;;;10.17;;
44048;SDS011;29717;47.028;15.470;2023-02-28T08:22:12;13.60;;;10.53;;
44048;SDS011;29717;47.028;15.470;2023-02-28T08:24:40;13.03;;;10.37;;
44048;SDS011;29717;47.028;15.470;2023-02-28T08:27:07;14.47;;;10.93;;
44048;SDS011;29717;47.028;15.470;2023-02-28T08:29:37;13.90;;;10.50;;
44048;SDS011;29717;47.028;15.470;2023-02-28T08:32:04;11.97;;;10.63;;
44048;SDS011;29717;47.028;15.470;2023-02-28T08:34:31;14.77;;;11.43;;
44048;SDS011;29717;47.028;15.470;2023-02-28T08:36:58;12.33;;;10.43;;
44048;SDS011;29717;47.028;15.470;2023-02-28T08:39:25;13.03;;;10.53;;
44048;SDS011;29717;47.028;15.470;2023-02-28T08:41:52;12.87;;;10.97;;
44048;SDS011;29717;47.028;15.470;2023-02-28T08:44:19;13.90;;;10.50;;
44048;SDS011;29717;47.028;15.470;2023-02-28T08:46:48;13.03;;;10.50;;
44048;SDS011;29717;47.028;15.470;2023-02-28T08:49:14;13.20;;;10.90;;
44048;SDS011;29717;47.028;15.470;2023-02-28T08:51:41;15.27;;;10.97;;
44048;SDS011;29717;47.028;15.470;2023-02-28T08:54:08;12.23;;;10.37;;
44048;SDS011;29717;47.028;15.470;2023-02-28T08:56:37;15.93;;;11.43;;
44048;SDS011;29717;47.028;15.470;2023-02-28T08:59:05;12.30;;;10.47;;
44048;SDS011;29717;47.028;15.470;2023-02-28T09:01:31;14.07;;;10.33;;
44048;SDS011;29717;47.028;15.470;2023-02-28T09:04:01;14.30;;;10.93;;
44048;SDS011;29717;47.028;15.470;2023-02-28T09:06:28;13.27;;;11.17;;
44048;SDS011;29717;47.028;15.470;2023-02-28T09:08:56;14.40;;;10.73;;
44048;SDS011;29717;47.028;15.470;2023-02-28T09:11:24;14.07;;;10.30;;
44048;SDS011;29717;47.028;15.470;2023-02-28T09:13:51;12.73;;;11.40;;
44048;SDS011;29717;47.028;15.470;2023-02-28T09:16:18;12.13;;;10.80;;
44048;SDS011;29717;47.028;15.470;2023-02-28T09:18:45;12.23;;;10.40;;
44048;SDS011;29717;47.028;15.470;2023-02-28T09:21:13;14.27;;;10.93;;
44048;SDS011;29717;47.028;15.470;2023-02-28T09:23:40;16.53;;;11.23;;
44048;SDS011;29717;47.028;15.470;2023-02-28T09:26:11;14.43;;;10.90;;
44048;SDS011;29717;47.028;15.470;2023-02-28T09:28:39;13.93;;;10.37;;
44048;SDS011;29717;47.028;15.470;2023-02-28T09:31:06;12.47;;;10.87;;
44048;SDS011;29717;47.028;15.470;2023-02-28T09:33:32;15.67;;;10.47;;
44048;SDS011;29717;47.028;15.470;2023-02-28T09:36:00;13.93;;;11.30;;
44048;SDS011;29717;47.028;15.470;2023-02-28T09:38:30;14.00;;;11.20;;
44048;SDS011;29717;47.028;15.470;2023-02-28T09:40:58;14.10;;;10.63;;
44048;SDS011;29717;47.028;15.470;2023-02-28T09:43:26;15.93;;;11.53;;
44048;SDS011;29717;47.028;15.470;2023-02-28T09:45:55;15.57;;;10.73;;
44048;SDS011;29717;47.028;15.470;2023-02-28T09:48:27;15.50;;;10.57;;
44048;SDS011;29717;47.028;15.470;2023-02-28T09:50:59;13.70;;;10.37;;
44048;SDS011;29717;47.028;15.470;2023-02-28T09:53:28;13.73;;;10.77;;
44048;SDS011;29717;47.028;15.470;2023-02-28T09:56:01;18.70;;;12.03;;
44048;SDS011;29717;47.028;15.470;2023-02-28T09:58:31;13.07;;;10.30;;
44048;SDS011;29717;47.028;15.470;2023-02-28T10:01:02;13.43;;;11.17;;
44048;SDS011;29717;47.028;15.470;2023-02-28T10:03:30;13.40;;;10.80;;
44048;SDS011;29717;47.028;15.470;2023-02-28T10:06:00;13.60;;;10.83;;
44048;SDS011;29717;47.028;15.470;2023-02-28T10:08:30;14.00;;;10.73;;
44048;SDS011;29717;47.028;15.470;2023-02-28T10:11:00;13.93;;;10.90;;
44048;SDS011;29717;47.028;15.470;2023-02-28T10:13:31;15.83;;;11.00;;
44048;SDS011;29717;47.028;15.470;2023-02-28T10:16:00;13.80;;;11.37;;
44048;SDS011;29717;47.028;15.470;2023-02-28T10:18:28;14.73;;;10.20;;
44048;SDS011;29717;47.028;15.470;2023-02-28T10:20:57;14.57;;;10.87;;
44048;SDS011;29717;47.028;15.470;2023-02-28T10:23:26;13.63;;;10.70;;
44048;SDS011;29717;47.028;15.470;2023-02-28T10:25:55;13.50;;;10.97;;
44048;SDS011;29717;47.028;15.470;2023-02-28T10:28:25;16.37;;;11.73;;
44048;SDS011;29717;47.028;15.470;2023-02-28T10:30:53;17.70;;;11.37;;
44048;SDS011;29717;47.028;15.470;2023-02-28T10:33:21;14.23;;;11.50;;
44048;SDS011;29717;47.028;15.470;2023-02-28T10:35:49;14.00;;;10.87;;
44048;SDS011;29717;47.028;15.470;2023-02-28T10:38:16;13.03;;;11.10;;
44048;SDS011;29717;47.028;15.470;2023-02-28T10:40:43;14.17;;;11.37;;
44048;SDS011;29717;47.028;15.470;2023-02-28T10:43:21;14.50;;;12.00;;
44048;SDS011;29717;47.028;15.470;2023-02-28T10:45:57;14.00;;;11.77;;
44048;SDS011;29717;47.028;15.470;2023-02-28T10:48:27;17.53;;;11.73;;
44048;SDS011;29717;47.028;15.470;2023-02-28T10:50:55;16.23;;;11.80;;
44048;SDS011;29717;47.028;15.470;2023-02-28T10:53:26;14.23;;;12.57;;
44048;SDS011;29717;47.028;15.470;2023-02-28T10:55:58;13.37;;;11.20;;
44048;SDS011;29717;47.028;15.470;2023-02-28T10:58:27;16.57;;;11.80;;
44048;SDS011;29717;47.028;15.470;2023-02-28T11:00:54;12.37;;;10.73;;
44048;SDS011;29717;47.028;15.470;2023-02-28T11:03:29;14.37;;;11.40;;
44048;SDS011;29717;47.028;15.470;2023-02-28T11:05:56;15.87;;;11.73;;
44048;SDS011;29717;47.028;15.470;2023-02-28T11:08:23;15.30;;;12.90;;
44048;SDS011;29717;47.028;15.470;2023-02-28T11:10:53;15.20;;;11.90;;
44048;SDS011;29717;47.028;15.470;2023-02-28T11:13:21;12.60;;;11.07;;
44048;SDS011;29717;47.028;15.470;2023-02-28T11:15:51;18.97;;;12.97;;
44048;SDS011;29717;47.028;15.470;2023-02-28T11:18:21;15.90;;;11.63;;
44048;SDS011;29717;47.028;15.470;2023-02-28T11:20:50;14.33;;;11.83;;
44048;SDS011;29717;47.028;15.470;2023-02-28T11:23:20;15.57;;;11.98;;
44048;SDS011;29717;47.028;15.470;2023-02-28T11:25:48;15.30;;;11.80;;
44048;SDS011;29717;47.028;15.470;2023-02-28T11:28:26;19.30;;;12.45;;
44048;SDS011;29717;47.028;15.470;2023-02-28T11:31:00;16.50;;;12.55;;
44048;SDS011;29717;47.028;15.470;2023-02-28T11:33:28;14.85;;;12.13;;
44048;SDS011;29717;47.028;15.470;2023-02-28T11:35:58;15.82;;;12.10;;
44048;SDS011;29717;47.028;15.470;2023-02-28T11:38:25;15.27;;;12.40;;
44048;SDS011;29717;47.028;15.470;2023-02-28T11:40:56;15.70;;;12.27;;
44048;SDS011;29717;47.028;15.470;2023-02-28T11:43:32;14.65;;;11.60;;
44048;SDS011;29717;47.028;15.470;2023-02-28T11:46:05;14.45;;;11.98;;
44048;SDS011;29717;47.028;15.470;2023-02-28T11:48:38;16.60;;;12.40;;
44048;SDS011;29717;47.028;15.470;2023-02-28T11:51:12;18.50;;;12.95;;
44048;SDS011;29717;47.028;15.470;2023-02-28T11:56:24;17.80;;;12.85;;
44048;SDS011;29717;47.028;15.470;2023-02-28T11:58:55;14.13;;;12.40;;
44048;SDS011;29717;47.028;15.470;2023-02-28T12:01:32;16.10;;;12.85;;
44048;SDS011;29717;47.028;15.470;2023-02-28T12:04:09;18.63;;;12.75;;
44048;SDS011;29717;47.028;15.470;2023-02-28T12:06:40;16.30;;;12.27;;
44048;SDS011;29717;47.028;15.470;2023-02-28T12:09:18;15.75;;;12.20;;
44048;SDS011;29717;47.028;15.470;2023-02-28T12:11:49;15.95;;;12.20;;
44048;SDS011;29717;47.028;15.470;2023-02-28T12:17:06;15.75;;;13.88;;
44048;SDS011;29717;47.028;15.470;2023-02-28T12:19:39;15.85;;;13.48;;
44048;SDS011;29717;47.028;15.470;2023-02-28T12:22:15;15.07;;;13.43;;
44048;SDS011;29717;47.028;15.470;2023-02-28T12:24:48;15.23;;;12.18;;
44048;SDS011;29717;47.028;15.470;2023-02-28T12:27:19;15.48;;;12.90;;
44048;SDS011;29717;47.028;15.470;2023-02-28T12:29:47;15.70;;;13.35;;
44048;SDS011;29717;47.028;15.470;2023-02-28T12:32:16;16.77;;;13.20;;
44048;SDS011;29717;47.028;15.470;2023-02-28T12:34:47;19.35;;;14.57;;
44048;SDS011;29717;47.028;15.470;2023-02-28T12:37:17;16.58;;;13.35;;
44048;SDS011;29717;47.028;15.470;2023-02-28T12:39:49;18.38;;;13.30;;
44048;SDS011;29717;47.028;15.470;2023-02-28T12:42:19;18.27;;;13.57;;
44048;SDS011;29717;47.028;15.470;2023-02-28T12:44:52;17.52;;;13.88;;
44048;SDS011;29717;47.028;15.470;2023-02-28T12:47:21;19.50;;;14.27;;
44048;SDS011;29717;47.028;15.470;2023-02-28T12:49:49;27.55;;;15.45;;
44048;SDS011;29717;47.028;15.470;2023-02-28T12:52:19;20.00;;;13.80;;
44048;SDS011;29717;47.028;15.470;2023-02-28T12:54:47;17.92;;;12.63;;
44048;SDS011;29717;47.028;15.470;2023-02-28T12:57:16;23.52;;;14.70;;
44048;SDS011;29717;47.028;15.470;2023-02-28T12:59:45;21.10;;;14.02;;
44048;SDS011;29717;47.028;15.470;2023-02-28T13:07:53;15.73;;;13.40;;
44048;SDS011;29717;47.028;15.470;2023-02-28T13:10:22;15.60;;;13.55;;
44048;SDS011;29717;47.028;15.470;2023-02-28T13:12:50;18.13;;;13.27;;
44048;SDS011;29717;47.028;15.470;2023-02-28T13:15:18;15.55;;;13.35;;
44048;SDS011;29717;47.028;15.470;2023-02-28T13:17:48;17.58;;;12.80;;
44048;SDS011;29717;47.028;15.470;2023-02-28T13:20:16;17.50;;;12.48;;
44048;SDS011;29717;47.028;15.470;2023-02-28T13:22:44;18.67;;;13.05;;
44048;SDS011;29717;47.028;15.470;2023-02-28T13:28:08;15.57;;;13.13;;
44048;SDS011;29717;47.028;15.470;2023-02-28T13:33:25;15.65;;;13.30;;
44048;SDS011;29717;47.028;15.470;2023-02-28T13:36:07;16.23;;;12.68;;
44048;SDS011;29717;47.028;15.470;2023-02-28T13:38:35;19.23;;;13.15;;
44048;SDS011;29717;47.028;15.470;2023-02-28T13:46:38;15.83;;;12.43;;
44048;SDS011;29717;47.028;15.470;2023-02-28T13:49:25;16.27;;;12.80;;
44048;SDS011;29717;47.028;15.470;2023-02-28T13:51:53;20.27;;;12.75;;
44048;SDS011;29717;47.028;15.470;2023-02-28T13:54:24;15.98;;;12.40;;
44048;SDS011;29717;47.028;15.470;2023-02-28T13:57:00;16.67;;;12.98;;
44048;SDS011;29717;47.028;15.470;2023-02-28T13:59:30;17.25;;;12.82;;
44048;SDS011;29717;47.028;15.470;2023-02-28T14:02:06;16.50;;;12.30;;
44048;SDS011;29717;47.028;15.470;2023-02-28T14:07:24;13.75;;;12.07;;
44048;SDS011;29717;47.028;15.470;2023-02-28T14:09:55;14.60;;;12.70;;
44048;SDS011;29717;47.028;15.470;2023-02-28T14:17:51;13.35;;;11.88;;
44048;SDS011;29717;47.028;15.470;2023-02-28T14:20:19;14.32;;;11.57;;
44048;SDS011;29717;47.028;15.470;2023-02-28T14:22:50;16.88;;;12.32;;
44048;SDS011;29717;47.028;15.470;2023-02-28T14:25:22;14.10;;;11.98;;
44048;SDS011;29717;47.028;15.470;2023-02-28T14:27:50;16.42;;;12.98;;
44048;SDS011;29717;47.028;15.470;2023-02-28T14:33:18;14.00;;;11.25;;
44048;SDS011;29717;47.028;15.470;2023-02-28T14:36:07;13.90;;;12.45;;
44048;SDS011;29717;47.028;15.470;2023-02-28T14:38:36;13.60;;;11.35;;
44048;SDS011;29717;47.028;15.470;2023-02-28T14:41:04;13.88;;;11.95;;
44048;SDS011;29717;47.028;15.470;2023-02-28T14:43:33;14.45;;;12.95;;
44048;SDS011;29717;47.028;15.470;2023-02-28T14:46:00;14.65;;;11.77;;
44048;SDS011;29717;47.028;15.470;2023-02-28T14:48:29;15.25;;;12.45;;
44048;SDS011;29717;47.028;15.470;2023-02-28T14:50:57;12.63;;;11.32;;
44048;SDS011;29717;47.028;15.470;2023-02-28T14:53:25;13.88;;;11.45;;
44048;SDS011;29717;47.028;15.470;2023-02-28T14:55:52;17.17;;;13.88;;
44048;SDS011;29717;47.028;15.470;2023-02-28T14:58:21;14.43;;;12.45;;
44048;SDS011;29717;47.028;15.470;2023-02-28T15:00:49;19.08;;;13.85;;
44048;SDS011;29717;47.028;15.470;2023-02-28T15:03:18;18.42;;;13.27;;
44048;SDS011;29717;47.028;15.470;2023-02-28T15:05:52;16.10;;;13.50;;
44048;SDS011;29717;47.028;15.470;2023-02-28T15:08:19;19.23;;;13.88;;
44048;SDS011;29717;47.028;15.470;2023-02-28T15:10:50;16.17;;;12.57;;